sensor_id;sensor_type;location;lat;lon;timestamp;temperature;humidity
4312;DHT22;2169;49.086;9.284;2024-01-30T00:00:52;2.60;66.60
4312;DHT22;2169;49.086;9.284;2024-01-30T00:03:19;2.60;66.60
4312;DHT22;2169;49.086;9.284;2024-01-30T00:05:46;2.60;66.70
4312;DHT22;2169;49.086;9.284;2024-01-30T00:08:13;2.50;66.60
4312;DHT22;2169;49.086;9.284;2024-01-30T00:10:40;2.50;66.60
4312;DHT22;2169;49.086;9.284;2024-01-30T00:13:07;2.50;66.60
4312;DHT22;2169;49.086;9.284;2024-01-30T00:15:34;2.50;66.70
4312;DHT22;2169;49.086;9.284;2024-01-30T00:18:03;2.40;66.60
4312;DHT22;2169;49.086;9.284;2024-01-30T00:20:30;2.40;66.60
4312;DHT22;2169;49.086;9.284;2024-01-30T00:22:57;2.40;66.60
4312;DHT22;2169;49.086;9.284;2024-01-30T00:25:23;2.30;66.60
4312;DHT22;2169;49.086;9.284;2024-01-30T00:27:50;2.30;66.70
4312;DHT22;2169;49.086;9.284;2024-01-30T00:30:17;2.30;66.70
4312;DHT22;2169;49.086;9.284;2024-01-30T00:32:45;2.30;66.70
4312;DHT22;2169;49.086;9.284;2024-01-30T00:35:13;2.30;66.70
4312;DHT22;2169;49.086;9.284;2024-01-30T00:37:40;2.20;66.70
4312;DHT22;2169;49.086;9.284;2024-01-30T00:40:08;2.20;66.70
4312;DHT22;2169;49.086;9.284;2024-01-30T00:42:39;2.20;66.80
4312;DHT22;2169;49.086;9.284;2024-01-30T00:45:06;2.20;66.80
4312;DHT22;2169;49.086;9.284;2024-01-30T00:47:38;2.20;66.80
4312;DHT22;2169;49.086;9.284;2024-01-30T00:50:06;2.20;66.90
4312;DHT22;2169;49.086;9.284;2024-01-30T00:52:34;2.20;66.90
4312;DHT22;2169;49.086;9.284;2024-01-30T00:55:01;2.10;66.80
4312;DHT22;2169;49.086;9.284;2024-01-30T00:57:29;2.10;66.80
4312;DHT22;2169;49.086;9.284;2024-01-30T00:59:56;2.10;66.80
4312;DHT22;2169;49.086;9.284;2024-01-30T01:02:23;2.00;66.80
4312;DHT22;2169;49.086;9.284;2024-01-30T01:04:50;2.10;67.00
4312;DHT22;2169;49.086;9.284;2024-01-30T01:07:16;2.00;66.90
4312;DHT22;2169;49.086;9.284;2024-01-30T01:09:45;2.00;66.90
4312;DHT22;2169;49.086;9.284;2024-01-30T01:12:12;2.00;66.90
4312;DHT22;2169;49.086;9.284;2024-01-30T01:14:39;2.00;67.00
4312;DHT22;2169;49.086;9.284;2024-01-30T01:17:06;2.00;67.00
4312;DHT22;2169;49.086;9.284;2024-01-30T01:19:32;1.90;67.00
4312;DHT22;2169;49.086;9.284;2024-01-30T01:22:00;1.90;67.10
4312;DHT22;2169;49.086;9.284;2024-01-30T01:24:29;1.90;67.10
4312;DHT22;2169;49.086;9.284;2024-01-30T01:26:58;1.90;67.20
4312;DHT22;2169;49.086;9.284;2024-01-30T01:29:24;1.90;67.20
4312;DHT22;2169;49.086;9.284;2024-01-30T01:31:54;1.90;67.90
4312;DHT22;2169;49.086;9.284;2024-01-30T01:34:21;1.90;67.20
4312;DHT22;2169;49.086;9.284;2024-01-30T01:36:49;1.90;67.20
4312;DHT22;2169;49.086;9.284;2024-01-30T01:39:16;1.90;67.30
4312;DHT22;2169;49.086;9.284;2024-01-30T01:41:42;1.80;67.20
4312;DHT22;2169;49.086;9.284;2024-01-30T01:44:11;1.80;67.30
4312;DHT22;2169;49.086;9.284;2024-01-30T01:46:38;1.80;67.30
4312;DHT22;2169;49.086;9.284;2024-01-30T01:49:05;1.80;67.30
4312;DHT22;2169;49.086;9.284;2024-01-30T01:51:34;1.80;67.30
4312;DHT22;2169;49.086;9.284;2024-01-30T01:54:04;1.80;67.40
4312;DHT22;2169;49.086;9.284;2024-01-30T01:56:31;1.80;67.50
4312;DHT22;2169;49.086;9.284;2024-01-30T01:59:00;1.70;67.40
4312;DHT22;2169;49.086;9.284;2024-01-30T02:01:31;1.70;67.40
4312;DHT22;2169;49.086;9.284;2024-01-30T02:03:59;1.70;67.40
4312;DHT22;2169;49.086;9.284;2024-01-30T02:06:26;1.70;67.40
4312;DHT22;2169;49.086;9.284;2024-01-30T02:08:53;1.70;67.50
4312;DHT22;2169;49.086;9.284;2024-01-30T02:11:21;1.70;67.50
4312;DHT22;2169;49.086;9.284;2024-01-30T02:13:49;1.70;67.50
4312;DHT22;2169;49.086;9.284;2024-01-30T02:16:16;1.60;67.50
4312;DHT22;2169;49.086;9.284;2024-01-30T02:18:44;1.60;67.60
4312;DHT22;2169;49.086;9.284;2024-01-30T02:21:15;1.60;67.50
4312;DHT22;2169;49.086;9.284;2024-01-30T02:23:43;1.60;67.60
4312;DHT22;2169;49.086;9.284;2024-01-30T02:26:11;1.50;67.50
4312;DHT22;2169;49.086;9.284;2024-01-30T02:28:38;1.50;67.50
4312;DHT22;2169;49.086;9.284;2024-01-30T02:31:05;1.60;68.30
4312;DHT22;2169;49.086;9.284;2024-01-30T02:33:32;1.60;67.70
4312;DHT22;2169;49.086;9.284;2024-01-30T02:35:59;1.50;67.60
4312;DHT22;2169;49.086;9.284;2024-01-30T02:38:27;1.50;67.70
4312;DHT22;2169;49.086;9.284;2024-01-30T02:40:54;1.50;67.70
4312;DHT22;2169;49.086;9.284;2024-01-30T02:43:23;1.50;67.70
4312;DHT22;2169;49.086;9.284;2024-01-30T02:45:50;1.40;67.60
4312;DHT22;2169;49.086;9.284;2024-01-30T02:48:17;1.40;67.70
4312;DHT22;2169;49.086;9.284;2024-01-30T02:50:43;1.40;67.70
4312;DHT22;2169;49.086;9.284;2024-01-30T02:53:11;1.40;67.80
4312;DHT22;2169;49.086;9.284;2024-01-30T02:55:39;1.40;67.70
4312;DHT22;2169;49.086;9.284;2024-01-30T02:58:06;1.40;67.80
4312;DHT22;2169;49.086;9.284;2024-01-30T03:00:33;1.40;67.80
4312;DHT22;2169;49.086;9.284;2024-01-30T03:03:00;1.40;67.90
4312;DHT22;2169;49.086;9.284;2024-01-30T03:05:27;1.40;67.90
4312;DHT22;2169;49.086;9.284;2024-01-30T03:07:54;1.30;67.80
4312;DHT22;2169;49.086;9.284;2024-01-30T03:10:21;1.30;67.90
4312;DHT22;2169;49.086;9.284;2024-01-30T03:12:49;1.30;68.60
4312;DHT22;2169;49.086;9.284;2024-01-30T03:15:16;1.30;67.90
4312;DHT22;2169;49.086;9.284;2024-01-30T03:17:43;1.30;68.00
4312;DHT22;2169;49.086;9.284;2024-01-30T03:20:11;1.30;68.00
4312;DHT22;2169;49.086;9.284;2024-01-30T03:22:38;1.20;68.00
4312;DHT22;2169;49.086;9.284;2024-01-30T03:25:05;1.20;67.90
4312;DHT22;2169;49.086;9.284;2024-01-30T03:27:32;1.20;68.00
4312;DHT22;2169;49.086;9.284;2024-01-30T03:30:04;1.20;68.00
4312;DHT22;2169;49.086;9.284;2024-01-30T03:32:31;1.20;68.00
4312;DHT22;2169;49.086;9.284;2024-01-30T03:34:57;1.10;67.90
4312;DHT22;2169;49.086;9.284;2024-01-30T03:37:24;1.20;68.10
4312;DHT22;2169;49.086;9.284;2024-01-30T03:39:51;1.10;68.00
4312;DHT22;2169;49.086;9.284;2024-01-30T03:42:18;1.10;68.00
4312;DHT22;2169;49.086;9.284;2024-01-30T03:44:45;1.10;68.00
4312;DHT22;2169;49.086;9.284;2024-01-30T03:47:13;1.10;68.10
4312;DHT22;2169;49.086;9.284;2024-01-30T03:49:40;1.10;68.10
4312;DHT22;2169;49.086;9.284;2024-01-30T03:52:08;1.10;68.10
4312;DHT22;2169;49.086;9.284;2024-01-30T03:54:35;1.10;68.10
4312;DHT22;2169;49.086;9.284;2024-01-30T03:57:01;1.10;68.10
4312;DHT22;2169;49.086;9.284;2024-01-30T03:59:28;1.00;68.00
4312;DHT22;2169;49.086;9.284;2024-01-30T04:01:55;1.00;68.70
4312;DHT22;2169;49.086;9.284;2024-01-30T04:04:24;1.00;68.10
4312;DHT22;2169;49.086;9.284;2024-01-30T04:06:51;1.00;68.10
4312;DHT22;2169;49.086;9.284;2024-01-30T04:09:17;1.00;68.10
4312;DHT22;2169;49.086;9.284;2024-01-30T04:11:44;1.00;68.10
4312;DHT22;2169;49.086;9.284;2024-01-30T04:14:11;1.00;68.20
4312;DHT22;2169;49.086;9.284;2024-01-30T04:16:38;0.90;68.10
4312;DHT22;2169;49.086;9.284;2024-01-30T04:19:05;0.90;68.10
4312;DHT22;2169;49.086;9.284;2024-01-30T04:21:33;0.90;68.20
4312;DHT22;2169;49.086;9.284;2024-01-30T04:24:00;0.90;68.20
4312;DHT22;2169;49.086;9.284;2024-01-30T04:26:27;0.90;68.20
4312;DHT22;2169;49.086;9.284;2024-01-30T04:28:54;0.80;68.10
4312;DHT22;2169;49.086;9.284;2024-01-30T04:31:21;0.90;69.00
4312;DHT22;2169;49.086;9.284;2024-01-30T04:33:47;0.80;68.20
4312;DHT22;2169;49.086;9.284;2024-01-30T04:36:14;0.80;68.20
4312;DHT22;2169;49.086;9.284;2024-01-30T04:38:43;0.80;68.20
4312;DHT22;2169;49.086;9.284;2024-01-30T04:41:10;0.80;68.30
4312;DHT22;2169;49.086;9.284;2024-01-30T04:43:37;0.80;68.30
4312;DHT22;2169;49.086;9.284;2024-01-30T04:46:04;0.80;68.30
4312;DHT22;2169;49.086;9.284;2024-01-30T04:48:31;0.80;68.30
4312;DHT22;2169;49.086;9.284;2024-01-30T04:50:58;0.80;68.30
4312;DHT22;2169;49.086;9.284;2024-01-30T04:53:29;0.80;68.40
4312;DHT22;2169;49.086;9.284;2024-01-30T04:55:57;0.80;68.40
4312;DHT22;2169;49.086;9.284;2024-01-30T04:58:24;0.80;68.40
4312;DHT22;2169;49.086;9.284;2024-01-30T05:00:51;0.70;68.40
4312;DHT22;2169;49.086;9.284;2024-01-30T05:03:18;0.70;68.30
4312;DHT22;2169;49.086;9.284;2024-01-30T05:05:45;0.70;68.40
4312;DHT22;2169;49.086;9.284;2024-01-30T05:08:12;0.70;68.50
4312;DHT22;2169;49.086;9.284;2024-01-30T05:10:39;0.70;68.50
4312;DHT22;2169;49.086;9.284;2024-01-30T05:13:07;0.70;68.50
4312;DHT22;2169;49.086;9.284;2024-01-30T05:15:34;0.70;68.50
4312;DHT22;2169;49.086;9.284;2024-01-30T05:18:01;0.70;68.50
4312;DHT22;2169;49.086;9.284;2024-01-30T05:20:27;0.70;68.50
4312;DHT22;2169;49.086;9.284;2024-01-30T05:22:54;0.60;68.50
4312;DHT22;2169;49.086;9.284;2024-01-30T05:25:21;0.60;68.50
4312;DHT22;2169;49.086;9.284;2024-01-30T05:27:49;0.60;68.50
4312;DHT22;2169;49.086;9.284;2024-01-30T05:30:17;0.60;68.50
4312;DHT22;2169;49.086;9.284;2024-01-30T05:32:45;0.60;68.50
4312;DHT22;2169;49.086;9.284;2024-01-30T05:35:12;0.60;68.60
4312;DHT22;2169;49.086;9.284;2024-01-30T05:37:38;0.60;68.60
4312;DHT22;2169;49.086;9.284;2024-01-30T05:40:06;0.60;68.60
4312;DHT22;2169;49.086;9.284;2024-01-30T05:42:33;0.60;68.60
4312;DHT22;2169;49.086;9.284;2024-01-30T05:45:00;0.60;68.60
4312;DHT22;2169;49.086;9.284;2024-01-30T05:47:29;0.60;68.60
4312;DHT22;2169;49.086;9.284;2024-01-30T05:49:56;0.50;68.60
4312;DHT22;2169;49.086;9.284;2024-01-30T05:52:24;0.50;68.60
4312;DHT22;2169;49.086;9.284;2024-01-30T05:54:51;0.50;68.60
4312;DHT22;2169;49.086;9.284;2024-01-30T05:57:18;0.50;68.70
4312;DHT22;2169;49.086;9.284;2024-01-30T05:59:59;0.50;68.60
4312;DHT22;2169;49.086;9.284;2024-01-30T06:02:26;0.50;68.60
4312;DHT22;2169;49.086;9.284;2024-01-30T06:04:54;0.50;69.30
4312;DHT22;2169;49.086;9.284;2024-01-30T06:07:21;0.50;68.70
4312;DHT22;2169;49.086;9.284;2024-01-30T06:09:48;0.50;68.70
4312;DHT22;2169;49.086;9.284;2024-01-30T06:12:15;0.50;68.70
4312;DHT22;2169;49.086;9.284;2024-01-30T06:14:42;0.50;68.70
4312;DHT22;2169;49.086;9.284;2024-01-30T06:17:09;0.50;68.80
4312;DHT22;2169;49.086;9.284;2024-01-30T06:19:37;0.50;68.80
4312;DHT22;2169;49.086;9.284;2024-01-30T06:22:06;0.40;68.70
4312;DHT22;2169;49.086;9.284;2024-01-30T06:24:32;0.40;68.80
4312;DHT22;2169;49.086;9.284;2024-01-30T06:27:00;0.40;68.80
4312;DHT22;2169;49.086;9.284;2024-01-30T06:29:27;0.40;68.80
4312;DHT22;2169;49.086;9.284;2024-01-30T06:31:54;0.40;68.80
4312;DHT22;2169;49.086;9.284;2024-01-30T06:34:21;0.40;68.80
4312;DHT22;2169;49.086;9.284;2024-01-30T06:36:48;0.40;68.90
4312;DHT22;2169;49.086;9.284;2024-01-30T06:39:16;0.40;68.90
4312;DHT22;2169;49.086;9.284;2024-01-30T06:41:43;0.40;68.90
4312;DHT22;2169;49.086;9.284;2024-01-30T06:44:12;0.40;69.00
4312;DHT22;2169;49.086;9.284;2024-01-30T06:46:40;0.40;69.00
4312;DHT22;2169;49.086;9.284;2024-01-30T06:49:07;0.40;69.00
4312;DHT22;2169;49.086;9.284;2024-01-30T06:51:34;0.40;69.00
4312;DHT22;2169;49.086;9.284;2024-01-30T06:54:03;0.40;69.10
4312;DHT22;2169;49.086;9.284;2024-01-30T06:56:36;0.40;69.10
4312;DHT22;2169;49.086;9.284;2024-01-30T06:59:03;0.40;69.20
4312;DHT22;2169;49.086;9.284;2024-01-30T07:01:30;0.40;69.20
4312;DHT22;2169;49.086;9.284;2024-01-30T07:03:58;0.40;69.20
4312;DHT22;2169;49.086;9.284;2024-01-30T07:06:25;0.40;69.20
4312;DHT22;2169;49.086;9.284;2024-01-30T07:08:51;0.40;69.20
4312;DHT22;2169;49.086;9.284;2024-01-30T07:11:19;0.40;69.30
4312;DHT22;2169;49.086;9.284;2024-01-30T07:13:48;0.40;69.30
4312;DHT22;2169;49.086;9.284;2024-01-30T07:16:15;0.40;69.30
4312;DHT22;2169;49.086;9.284;2024-01-30T07:18:43;0.40;69.40
4312;DHT22;2169;49.086;9.284;2024-01-30T07:21:11;0.40;69.40
4312;DHT22;2169;49.086;9.284;2024-01-30T07:23:38;0.40;69.40
4312;DHT22;2169;49.086;9.284;2024-01-30T07:26:05;0.40;69.40
4312;DHT22;2169;49.086;9.284;2024-01-30T07:28:32;0.40;69.40
4312;DHT22;2169;49.086;9.284;2024-01-30T07:31:01;0.40;69.50
4312;DHT22;2169;49.086;9.284;2024-01-30T07:33:28;0.40;69.50
4312;DHT22;2169;49.086;9.284;2024-01-30T07:35:55;0.40;69.50
4312;DHT22;2169;49.086;9.284;2024-01-30T07:38:22;0.40;69.50
4312;DHT22;2169;49.086;9.284;2024-01-30T07:40:50;0.40;69.60
4312;DHT22;2169;49.086;9.284;2024-01-30T07:43:16;0.40;69.60
4312;DHT22;2169;49.086;9.284;2024-01-30T07:45:43;0.40;69.70
4312;DHT22;2169;49.086;9.284;2024-01-30T07:48:11;0.40;69.70
4312;DHT22;2169;49.086;9.284;2024-01-30T07:50:39;0.40;69.70
4312;DHT22;2169;49.086;9.284;2024-01-30T07:53:06;0.50;69.90
4312;DHT22;2169;49.086;9.284;2024-01-30T07:55:33;0.50;70.00
4312;DHT22;2169;49.086;9.284;2024-01-30T07:58:00;0.50;70.00
4312;DHT22;2169;49.086;9.284;2024-01-30T08:00:29;0.50;70.00
4312;DHT22;2169;49.086;9.284;2024-01-30T08:02:58;0.60;70.20
4312;DHT22;2169;49.086;9.284;2024-01-30T08:05:26;0.60;70.20
4312;DHT22;2169;49.086;9.284;2024-01-30T08:07:53;0.60;70.20
4312;DHT22;2169;49.086;9.284;2024-01-30T08:10:21;0.60;70.30
4312;DHT22;2169;49.086;9.284;2024-01-30T08:12:57;0.60;70.30
4312;DHT22;2169;49.086;9.284;2024-01-30T08:15:24;0.70;70.50
4312;DHT22;2169;49.086;9.284;2024-01-30T08:17:51;0.70;70.50
4312;DHT22;2169;49.086;9.284;2024-01-30T08:20:21;0.80;70.70
4312;DHT22;2169;49.086;9.284;2024-01-30T08:23:04;0.80;70.70
4312;DHT22;2169;49.086;9.284;2024-01-30T08:25:31;0.80;70.80
4312;DHT22;2169;49.086;9.284;2024-01-30T08:27:58;0.90;70.90
4312;DHT22;2169;49.086;9.284;2024-01-30T08:30:25;0.90;70.90
4312;DHT22;2169;49.086;9.284;2024-01-30T08:32:53;0.90;71.00
4312;DHT22;2169;49.086;9.284;2024-01-30T08:35:23;1.00;71.10
4312;DHT22;2169;49.086;9.284;2024-01-30T08:37:50;1.00;71.20
4312;DHT22;2169;49.086;9.284;2024-01-30T08:40:18;1.10;71.30
4312;DHT22;2169;49.086;9.284;2024-01-30T08:42:44;1.20;71.50
4312;DHT22;2169;49.086;9.284;2024-01-30T08:45:11;1.20;71.50
4312;DHT22;2169;49.086;9.284;2024-01-30T08:47:50;1.30;71.70
4312;DHT22;2169;49.086;9.284;2024-01-30T08:50:17;1.30;71.80
4312;DHT22;2169;49.086;9.284;2024-01-30T08:52:44;1.40;71.90
4312;DHT22;2169;49.086;9.284;2024-01-30T08:55:11;1.50;72.10
4312;DHT22;2169;49.086;9.284;2024-01-30T08:58:04;1.60;72.30
4312;DHT22;2169;49.086;9.284;2024-01-30T09:00:31;1.60;72.40
4312;DHT22;2169;49.086;9.284;2024-01-30T09:02:58;1.70;72.50
4312;DHT22;2169;49.086;9.284;2024-01-30T09:05:25;1.80;72.80
4312;DHT22;2169;49.086;9.284;2024-01-30T09:08:10;1.90;72.90
4312;DHT22;2169;49.086;9.284;2024-01-30T09:10:37;2.00;73.10
4312;DHT22;2169;49.086;9.284;2024-01-30T09:13:05;2.10;73.30
4312;DHT22;2169;49.086;9.284;2024-01-30T09:15:33;2.20;73.50
4312;DHT22;2169;49.086;9.284;2024-01-30T09:18:19;2.30;73.70
4312;DHT22;2169;49.086;9.284;2024-01-30T09:20:46;2.40;73.90
4312;DHT22;2169;49.086;9.284;2024-01-30T09:23:14;2.50;74.00
4312;DHT22;2169;49.086;9.284;2024-01-30T09:25:42;2.60;74.20
4312;DHT22;2169;49.086;9.284;2024-01-30T09:28:25;2.80;74.50
4312;DHT22;2169;49.086;9.284;2024-01-30T09:30:52;2.80;74.50
4312;DHT22;2169;49.086;9.284;2024-01-30T09:33:19;3.00;74.70
4312;DHT22;2169;49.086;9.284;2024-01-30T09:35:46;3.10;74.80
4312;DHT22;2169;49.086;9.284;2024-01-30T09:38:29;3.20;74.90
4312;DHT22;2169;49.086;9.284;2024-01-30T09:41:02;3.30;75.00
4312;DHT22;2169;49.086;9.284;2024-01-30T09:43:35;3.40;75.10
4312;DHT22;2169;49.086;9.284;2024-01-30T09:46:02;3.50;75.20
4312;DHT22;2169;49.086;9.284;2024-01-30T09:48:42;3.60;75.30
4312;DHT22;2169;49.086;9.284;2024-01-30T09:51:09;3.70;75.30
4312;DHT22;2169;49.086;9.284;2024-01-30T09:53:38;3.80;75.40
4312;DHT22;2169;49.086;9.284;2024-01-30T09:56:06;3.90;75.50
4312;DHT22;2169;49.086;9.284;2024-01-30T09:58:53;4.00;75.60
4312;DHT22;2169;49.086;9.284;2024-01-30T10:01:20;4.20;75.70
4312;DHT22;2169;49.086;9.284;2024-01-30T10:03:49;4.20;75.60
4312;DHT22;2169;49.086;9.284;2024-01-30T10:06:17;4.40;75.80
4312;DHT22;2169;49.086;9.284;2024-01-30T10:08:56;4.50;75.80
4312;DHT22;2169;49.086;9.284;2024-01-30T10:11:23;4.60;75.80
4312;DHT22;2169;49.086;9.284;2024-01-30T10:13:50;4.70;75.80
4312;DHT22;2169;49.086;9.284;2024-01-30T10:16:18;4.80;75.80
4312;DHT22;2169;49.086;9.284;2024-01-30T10:19:04;4.90;75.90
4312;DHT22;2169;49.086;9.284;2024-01-30T10:21:31;5.10;76.00
4312;DHT22;2169;49.086;9.284;2024-01-30T10:23:58;5.20;76.00
4312;DHT22;2169;49.086;9.284;2024-01-30T10:26:25;5.30;76.00
4312;DHT22;2169;49.086;9.284;2024-01-30T10:31:38;5.50;75.90
4312;DHT22;2169;49.086;9.284;2024-01-30T10:34:05;5.60;76.60
4312;DHT22;2169;49.086;9.284;2024-01-30T10:36:37;5.70;75.80
4312;DHT22;2169;49.086;9.284;2024-01-30T10:39:21;5.80;75.70
4312;DHT22;2169;49.086;9.284;2024-01-30T10:41:52;5.90;75.60
4312;DHT22;2169;49.086;9.284;2024-01-30T10:44:22;6.00;75.60
4312;DHT22;2169;49.086;9.284;2024-01-30T10:47:16;6.00;75.50
4312;DHT22;2169;49.086;9.284;2024-01-30T10:49:45;6.10;75.50
4312;DHT22;2169;49.086;9.284;2024-01-30T10:52:13;6.20;75.40
4312;DHT22;2169;49.086;9.284;2024-01-30T10:54:44;6.30;75.40
4312;DHT22;2169;49.086;9.284;2024-01-30T10:57:24;6.40;75.40
4312;DHT22;2169;49.086;9.284;2024-01-30T10:59:52;6.50;75.40
4312;DHT22;2169;49.086;9.284;2024-01-30T11:02:22;6.60;75.30
4312;DHT22;2169;49.086;9.284;2024-01-30T11:04:55;6.70;75.20
4312;DHT22;2169;49.086;9.284;2024-01-30T11:07:27;6.90;75.10
4312;DHT22;2169;49.086;9.284;2024-01-30T11:10:01;7.00;74.90
4312;DHT22;2169;49.086;9.284;2024-01-30T11:12:29;7.10;74.80
4312;DHT22;2169;49.086;9.284;2024-01-30T11:15:03;7.10;74.50
4312;DHT22;2169;49.086;9.284;2024-01-30T11:17:50;7.20;74.30
4312;DHT22;2169;49.086;9.284;2024-01-30T11:20:20;7.30;74.10
4312;DHT22;2169;49.086;9.284;2024-01-30T11:22:51;7.40;73.90
4312;DHT22;2169;49.086;9.284;2024-01-30T11:27:52;7.60;73.50
4312;DHT22;2169;49.086;9.284;2024-01-30T11:30:23;7.70;73.30
4312;DHT22;2169;49.086;9.284;2024-01-30T11:33:02;7.70;73.00
4312;DHT22;2169;49.086;9.284;2024-01-30T11:35:32;7.80;72.70
4312;DHT22;2169;49.086;9.284;2024-01-30T11:37:59;7.90;72.60
4312;DHT22;2169;49.086;9.284;2024-01-30T11:40:28;8.00;72.40
4312;DHT22;2169;49.086;9.284;2024-01-30T11:42:55;8.10;72.20
4312;DHT22;2169;49.086;9.284;2024-01-30T11:45:22;8.10;71.90
4312;DHT22;2169;49.086;9.284;2024-01-30T11:47:49;8.20;71.70
4312;DHT22;2169;49.086;9.284;2024-01-30T11:50:17;8.30;71.60
4312;DHT22;2169;49.086;9.284;2024-01-30T11:52:44;8.30;71.30
4312;DHT22;2169;49.086;9.284;2024-01-30T11:55:12;8.40;71.20
4312;DHT22;2169;49.086;9.284;2024-01-30T11:57:39;8.50;71.00
4312;DHT22;2169;49.086;9.284;2024-01-30T12:00:14;8.50;70.80
4312;DHT22;2169;49.086;9.284;2024-01-30T12:02:41;8.60;70.50
4312;DHT22;2169;49.086;9.284;2024-01-30T12:05:08;8.70;71.10
4312;DHT22;2169;49.086;9.284;2024-01-30T12:07:37;8.70;70.20
4312;DHT22;2169;49.086;9.284;2024-01-30T12:10:04;8.80;69.90
4312;DHT22;2169;49.086;9.284;2024-01-30T12:12:33;8.90;69.80
4312;DHT22;2169;49.086;9.284;2024-01-30T12:15:00;8.90;69.50
4312;DHT22;2169;49.086;9.284;2024-01-30T12:17:28;9.00;69.40
4312;DHT22;2169;49.086;9.284;2024-01-30T12:20:03;9.00;69.10
4312;DHT22;2169;49.086;9.284;2024-01-30T12:22:33;9.10;69.10
4312;DHT22;2169;49.086;9.284;2024-01-30T12:25:01;9.10;68.90
4312;DHT22;2169;49.086;9.284;2024-01-30T12:27:29;9.20;68.80
4312;DHT22;2169;49.086;9.284;2024-01-30T12:29:56;9.30;68.70
4312;DHT22;2169;49.086;9.284;2024-01-30T12:32:23;9.30;68.50
4312;DHT22;2169;49.086;9.284;2024-01-30T12:34:50;9.30;68.30
4312;DHT22;2169;49.086;9.284;2024-01-30T12:37:17;9.40;68.20
4312;DHT22;2169;49.086;9.284;2024-01-30T12:39:48;9.40;68.10
4312;DHT22;2169;49.086;9.284;2024-01-30T12:42:16;9.50;68.10
4312;DHT22;2169;49.086;9.284;2024-01-30T12:44:43;9.50;67.90
4312;DHT22;2169;49.086;9.284;2024-01-30T12:47:10;9.60;67.80
4312;DHT22;2169;49.086;9.284;2024-01-30T12:49:37;9.60;67.50
4312;DHT22;2169;49.086;9.284;2024-01-30T12:52:04;9.70;67.40
4312;DHT22;2169;49.086;9.284;2024-01-30T12:54:31;9.70;67.20
4312;DHT22;2169;49.086;9.284;2024-01-30T12:56:58;9.80;67.10
4312;DHT22;2169;49.086;9.284;2024-01-30T12:59:26;9.80;66.80
4312;DHT22;2169;49.086;9.284;2024-01-30T13:01:52;9.90;66.60
4312;DHT22;2169;49.086;9.284;2024-01-30T13:04:19;9.90;66.40
4312;DHT22;2169;49.086;9.284;2024-01-30T13:06:46;9.90;66.30
4312;DHT22;2169;49.086;9.284;2024-01-30T13:09:13;10.00;65.10
4312;DHT22;2169;49.086;9.284;2024-01-30T13:11:40;10.00;64.90
4312;DHT22;2169;49.086;9.284;2024-01-30T13:14:06;10.10;64.80
4312;DHT22;2169;49.086;9.284;2024-01-30T13:16:35;10.10;64.60
4312;DHT22;2169;49.086;9.284;2024-01-30T13:19:01;10.20;64.50
4312;DHT22;2169;49.086;9.284;2024-01-30T13:21:29;10.20;64.40
4312;DHT22;2169;49.086;9.284;2024-01-30T13:23:55;10.30;64.50
4312;DHT22;2169;49.086;9.284;2024-01-30T13:26:22;10.30;64.30
4312;DHT22;2169;49.086;9.284;2024-01-30T13:28:49;10.30;64.10
4312;DHT22;2169;49.086;9.284;2024-01-30T13:31:16;10.40;64.00
4312;DHT22;2169;49.086;9.284;2024-01-30T13:33:44;10.40;63.90
4312;DHT22;2169;49.086;9.284;2024-01-30T13:36:11;10.50;63.90
4312;DHT22;2169;49.086;9.284;2024-01-30T13:38:38;10.50;63.70
4312;DHT22;2169;49.086;9.284;2024-01-30T13:41:05;10.50;63.50
4312;DHT22;2169;49.086;9.284;2024-01-30T13:43:32;10.60;63.40
4312;DHT22;2169;49.086;9.284;2024-01-30T13:45:59;10.60;63.20
4312;DHT22;2169;49.086;9.284;2024-01-30T13:48:34;10.60;63.10
4312;DHT22;2169;49.086;9.284;2024-01-30T13:51:03;10.70;63.00
4312;DHT22;2169;49.086;9.284;2024-01-30T13:53:29;10.70;62.90
4312;DHT22;2169;49.086;9.284;2024-01-30T13:55:56;10.70;62.80
4312;DHT22;2169;49.086;9.284;2024-01-30T13:58:23;10.80;62.70
4312;DHT22;2169;49.086;9.284;2024-01-30T14:00:50;10.80;62.50
4312;DHT22;2169;49.086;9.284;2024-01-30T14:03:20;10.80;62.40
4312;DHT22;2169;49.086;9.284;2024-01-30T14:05:47;10.80;62.30
4312;DHT22;2169;49.086;9.284;2024-01-30T14:08:15;10.80;62.30
4312;DHT22;2169;49.086;9.284;2024-01-30T14:10:42;10.90;62.30
4312;DHT22;2169;49.086;9.284;2024-01-30T14:13:09;10.90;62.30
4312;DHT22;2169;49.086;9.284;2024-01-30T14:15:37;10.90;62.30
4312;DHT22;2169;49.086;9.284;2024-01-30T14:18:04;10.90;62.20
4312;DHT22;2169;49.086;9.284;2024-01-30T14:20:33;10.90;62.90
4312;DHT22;2169;49.086;9.284;2024-01-30T14:23:00;10.90;62.20
4312;DHT22;2169;49.086;9.284;2024-01-30T14:25:28;10.90;62.20
4312;DHT22;2169;49.086;9.284;2024-01-30T14:27:55;10.90;62.10
4312;DHT22;2169;49.086;9.284;2024-01-30T14:30:22;10.90;62.10
4312;DHT22;2169;49.086;9.284;2024-01-30T14:32:49;10.90;62.00
4312;DHT22;2169;49.086;9.284;2024-01-30T14:35:16;10.90;62.00
4312;DHT22;2169;49.086;9.284;2024-01-30T14:37:44;11.00;62.10
4312;DHT22;2169;49.086;9.284;2024-01-30T14:40:11;10.90;62.00
4312;DHT22;2169;49.086;9.284;2024-01-30T14:42:40;10.90;62.20
4312;DHT22;2169;49.086;9.284;2024-01-30T14:45:06;10.90;62.30
4312;DHT22;2169;49.086;9.284;2024-01-30T14:47:34;11.00;62.50
4312;DHT22;2169;49.086;9.284;2024-01-30T14:50:01;10.90;62.50
4312;DHT22;2169;49.086;9.284;2024-01-30T14:52:28;10.90;62.60
4312;DHT22;2169;49.086;9.284;2024-01-30T14:54:54;10.90;62.60
4312;DHT22;2169;49.086;9.284;2024-01-30T14:57:21;10.90;62.70
4312;DHT22;2169;49.086;9.284;2024-01-30T14:59:49;10.90;62.70
4312;DHT22;2169;49.086;9.284;2024-01-30T15:02:16;10.80;62.80
4312;DHT22;2169;49.086;9.284;2024-01-30T15:04:43;10.80;62.80
4312;DHT22;2169;49.086;9.284;2024-01-30T15:07:10;10.80;62.80
4312;DHT22;2169;49.086;9.284;2024-01-30T15:09:37;10.70;62.80
4312;DHT22;2169;49.086;9.284;2024-01-30T15:12:06;10.70;62.90
4312;DHT22;2169;49.086;9.284;2024-01-30T15:14:33;10.70;62.90
4312;DHT22;2169;49.086;9.284;2024-01-30T15:17:01;10.60;62.90
4312;DHT22;2169;49.086;9.284;2024-01-30T15:19:28;10.60;62.90
4312;DHT22;2169;49.086;9.284;2024-01-30T15:21:55;10.60;63.00
4312;DHT22;2169;49.086;9.284;2024-01-30T15:24:21;10.60;63.10
4312;DHT22;2169;49.086;9.284;2024-01-30T15:26:50;10.60;63.10
4312;DHT22;2169;49.086;9.284;2024-01-30T15:29:16;10.50;63.20
4312;DHT22;2169;49.086;9.284;2024-01-30T15:31:43;10.50;63.30
4312;DHT22;2169;49.086;9.284;2024-01-30T15:34:11;10.50;63.30
4312;DHT22;2169;49.086;9.284;2024-01-30T15:36:38;10.40;63.30
4312;DHT22;2169;49.086;9.284;2024-01-30T15:39:05;10.40;63.40
4312;DHT22;2169;49.086;9.284;2024-01-30T15:41:32;10.40;63.50
4312;DHT22;2169;49.086;9.284;2024-01-30T15:43:58;10.40;63.60
4312;DHT22;2169;49.086;9.284;2024-01-30T15:46:27;10.30;63.70
4312;DHT22;2169;49.086;9.284;2024-01-30T15:48:56;10.30;63.80
4312;DHT22;2169;49.086;9.284;2024-01-30T15:51:27;10.30;63.90
4312;DHT22;2169;49.086;9.284;2024-01-30T15:53:54;10.20;63.90
4312;DHT22;2169;49.086;9.284;2024-01-30T15:56:21;10.20;64.00
4312;DHT22;2169;49.086;9.284;2024-01-30T15:58:48;10.20;64.10
4312;DHT22;2169;49.086;9.284;2024-01-30T16:01:15;10.20;64.10
4312;DHT22;2169;49.086;9.284;2024-01-30T16:03:42;10.10;64.10
4312;DHT22;2169;49.086;9.284;2024-01-30T16:06:10;10.10;64.10
4312;DHT22;2169;49.086;9.284;2024-01-30T16:08:39;10.10;64.20
4312;DHT22;2169;49.086;9.284;2024-01-30T16:11:07;10.10;64.30
4312;DHT22;2169;49.086;9.284;2024-01-30T16:13:34;10.10;64.30
4312;DHT22;2169;49.086;9.284;2024-01-30T16:16:03;10.00;64.20
4312;DHT22;2169;49.086;9.284;2024-01-30T16:18:30;10.00;64.30
4312;DHT22;2169;49.086;9.284;2024-01-30T16:20:57;10.00;64.20
4312;DHT22;2169;49.086;9.284;2024-01-30T16:23:24;10.00;64.30
4312;DHT22;2169;49.086;9.284;2024-01-30T16:25:54;9.90;65.30